createdAt,value
2017-03-10T00:00:11.921Z,1011.75
2017-03-10T00:00:52.410Z,1011.75
2017-03-10T00:01:32.929Z,1011.73
2017-03-10T00:02:13.416Z,1011.72
2017-03-10T00:02:53.944Z,1011.74
2017-03-10T00:03:34.440Z,1011.72
2017-03-10T00:04:14.968Z,1011.74
2017-03-10T00:04:55.438Z,1011.72
2017-03-10T00:05:35.958Z,1011.7
2017-03-10T00:06:16.497Z,1011.74
2017-03-10T00:06:56.971Z,1011.79
2017-03-10T00:07:37.469Z,1011.75
2017-03-10T00:08:17.975Z,1011.79
2017-03-10T00:08:58.480Z,1011.82
2017-03-10T00:09:38.974Z,1011.77
2017-03-10T00:10:19.509Z,1011.81
2017-03-10T00:10:59.978Z,1011.8
2017-03-10T00:11:40.501Z,1011.84
2017-03-10T00:12:20.994Z,1011.85
2017-03-10T00:13:01.492Z,1011.77
2017-03-10T00:13:42.061Z,1011.8
2017-03-10T00:14:23.730Z,1011.83
2017-03-10T00:15:04.268Z,1011.8
2017-03-10T00:15:44.821Z,1011.83
2017-03-10T00:16:25.349Z,1011.86
2017-03-10T00:17:05.849Z,1011.84
2017-03-10T00:17:46.308Z,1011.87
2017-03-10T00:18:26.799Z,1011.85
2017-03-10T00:19:08.879Z,1011.82
2017-03-10T00:19:52.322Z,1011.88
2017-03-10T00:20:31.681Z,1011.85
2017-03-10T00:21:12.187Z,1011.9
2017-03-10T00:21:52.644Z,1011.86
2017-03-10T00:22:34.523Z,1011.85
2017-03-10T00:23:13.642Z,1011.87
2017-03-10T00:23:54.700Z,1011.91
2017-03-10T00:24:35.161Z,1011.87
2017-03-10T00:25:15.686Z,1011.85
2017-03-10T00:25:56.121Z,1011.84
2017-03-10T00:26:36.620Z,1011.86
2017-03-10T00:27:17.098Z,1011.82
2017-03-10T00:27:57.606Z,1011.88
2017-03-10T00:28:38.098Z,1011.9
2017-03-10T00:29:19.675Z,1011.88
2017-03-10T00:29:59.850Z,1011.88
2017-03-10T00:30:40.431Z,1011.87
2017-03-10T00:31:20.901Z,1011.84
2017-03-10T00:32:01.505Z,1011.83
2017-03-10T00:32:42.072Z,1011.86
2017-03-10T00:33:22.748Z,1011.86
2017-03-10T00:34:03.244Z,1011.84
2017-03-10T00:34:43.691Z,1011.83
2017-03-10T00:35:24.188Z,1011.88
2017-03-10T00:36:04.828Z,1011.89
2017-03-10T00:36:46.012Z,1011.89
2017-03-10T00:37:27.380Z,1011.95
2017-03-10T00:38:08.359Z,1012.02
2017-03-10T00:38:49.165Z,1011.96
2017-03-10T00:39:29.651Z,1012
2017-03-10T00:40:10.146Z,1012.01
2017-03-10T00:40:50.657Z,1011.96
2017-03-10T00:41:31.190Z,1011.9
2017-03-10T00:42:11.645Z,1011.88
2017-03-10T00:42:52.149Z,1011.91
2017-03-10T00:43:32.630Z,1011.89
2017-03-10T00:44:13.507Z,1011.83
2017-03-10T00:44:55.071Z,1011.82
2017-03-10T00:45:35.572Z,1011.8
2017-03-10T00:46:16.052Z,1011.77
2017-03-10T00:46:56.524Z,1011.75
2017-03-10T00:47:37.453Z,1011.75
2017-03-10T00:48:17.821Z,1011.72
2017-03-10T00:48:58.353Z,1011.73
2017-03-10T00:49:39.889Z,1011.77
2017-03-10T00:50:21.196Z,1011.75
2017-03-10T00:51:01.692Z,1011.73
2017-03-10T00:51:42.180Z,1011.76
2017-03-10T00:52:22.680Z,1011.76
2017-03-10T00:53:03.148Z,1011.76
2017-03-10T00:53:43.690Z,1011.76
2017-03-10T00:54:24.708Z,1011.75
2017-03-10T00:55:06.148Z,1011.78
2017-03-10T00:55:47.010Z,1011.8
2017-03-10T00:56:27.468Z,1011.79
2017-03-10T00:57:07.961Z,1011.84
2017-03-10T00:57:48.441Z,1011.82
2017-03-10T00:58:30.473Z,1011.73
2017-03-10T00:59:10.966Z,1011.76
2017-03-10T00:59:51.462Z,1011.78
2017-03-10T01:00:31.972Z,1011.78
2017-03-10T01:01:12.481Z,1011.75
2017-03-10T01:01:53.990Z,1011.83
2017-03-10T01:02:34.534Z,1011.76
2017-03-10T01:03:21.800Z,1011.82
2017-03-10T01:06:25.351Z,1011.84
2017-03-10T01:07:05.848Z,1011.83
2017-03-10T01:07:49.231Z,1011.83
2017-03-10T01:08:29.807Z,1011.81
2017-03-10T01:09:13.639Z,1011.8
2017-03-10T01:09:52.816Z,1011.85
2017-03-10T01:10:36.446Z,1011.8
2017-03-10T01:11:16.920Z,1011.85
2017-03-10T01:11:59.598Z,1011.82
2017-03-10T01:12:40.116Z,1011.85
2017-03-10T01:13:20.636Z,1011.79
2017-03-10T01:14:01.138Z,1011.76
2017-03-10T01:14:43.827Z,1011.78
2017-03-10T01:16:57.915Z,1011.82
2017-03-10T01:17:39.434Z,1011.77
2017-03-10T01:18:19.991Z,1011.81
2017-03-10T01:19:00.465Z,1011.77
2017-03-10T01:19:40.978Z,1011.76
2017-03-10T01:20:21.694Z,1011.76
2017-03-10T01:21:06.164Z,1011.81
2017-03-10T01:21:48.481Z,1011.81
2017-03-10T01:22:32.062Z,1011.81
2017-03-10T01:23:12.554Z,1011.83
2017-03-10T01:23:53.524Z,1011.81
2017-03-10T01:26:24.781Z,1011.82
2017-03-10T01:27:10.117Z,1011.87
2017-03-10T01:27:52.167Z,1011.86
2017-03-10T01:28:32.906Z,1011.87
2017-03-10T01:29:13.467Z,1011.86
2017-03-10T01:29:53.955Z,1011.93
2017-03-10T01:30:34.464Z,1011.87
2017-03-10T01:31:14.970Z,1011.87
2017-03-10T01:31:55.524Z,1011.91
2017-03-10T01:32:40.401Z,1011.93
2017-03-10T01:33:20.925Z,1012.01
2017-03-10T01:34:01.680Z,1011.97
2017-03-10T01:34:43.221Z,1011.99
2017-03-10T01:35:23.781Z,1011.97
2017-03-10T01:36:04.315Z,1011.95
2017-03-10T01:36:46.940Z,1012.03
2017-03-10T01:37:29.401Z,1011.95
2017-03-10T01:38:09.945Z,1011.99
2017-03-10T01:38:50.455Z,1011.95
2017-03-10T01:39:30.970Z,1011.93
2017-03-10T01:40:11.493Z,1011.93
2017-03-10T01:40:51.961Z,1011.94
2017-03-10T01:41:35.659Z,1011.91
2017-03-10T01:42:17.494Z,1011.91
2017-03-10T01:42:59.361Z,1011.91
2017-03-10T01:43:40.710Z,1011.89
2017-03-10T01:44:20.648Z,1011.89
2017-03-10T01:45:01.134Z,1011.86
2017-03-10T01:45:41.654Z,1011.88
2017-03-10T01:46:22.269Z,1011.92
2017-03-10T01:47:02.799Z,1011.92
2017-03-10T01:47:43.327Z,1012
2017-03-10T01:48:23.922Z,1012.03
2017-03-10T01:49:05.535Z,1012.09
2017-03-10T01:49:50.763Z,1012.09
2017-03-10T01:50:31.277Z,1012.12
2017-03-10T01:51:15.625Z,1012.19
2017-03-10T01:51:58.321Z,1012.17
2017-03-10T01:52:38.871Z,1012.21
2017-03-10T01:53:21.060Z,1012.18
2017-03-10T01:54:01.528Z,1012.2
2017-03-10T01:54:43.519Z,1012.17
2017-03-10T01:55:24.041Z,1012.14
2017-03-10T01:56:06.162Z,1012.11
2017-03-10T01:56:46.674Z,1012.11
2017-03-10T01:57:27.154Z,1012.09
2017-03-10T01:58:07.686Z,1012.11
2017-03-10T01:58:48.183Z,1012.14
2017-03-10T01:59:28.725Z,1012.1
2017-03-10T02:00:09.287Z,1012.09
2017-03-10T02:00:49.783Z,1012.09
2017-03-10T02:01:30.289Z,1012.07
2017-03-10T02:02:10.903Z,1012.07
2017-03-10T02:02:51.526Z,1012.05
2017-03-10T02:03:31.942Z,1012.09
2017-03-10T02:04:12.442Z,1012.08
2017-03-10T02:04:52.945Z,1012.11
2017-03-10T02:05:33.451Z,1012.09
2017-03-10T02:06:14.071Z,1012.09
2017-03-10T02:06:54.588Z,1012.07
2017-03-10T02:07:35.259Z,1012.09
2017-03-10T02:08:17.509Z,1012.1
2017-03-10T02:08:58.019Z,1012.11
2017-03-10T02:09:38.540Z,1012.09
2017-03-10T02:10:19.078Z,1012.1
2017-03-10T02:10:59.665Z,1012.11
2017-03-10T02:11:40.180Z,1012.12
2017-03-10T02:12:20.749Z,1012.13
2017-03-10T02:13:01.324Z,1012.17
2017-03-10T02:13:41.836Z,1012.16
2017-03-10T02:14:22.359Z,1012.17
2017-03-10T02:15:04.726Z,1012.16
2017-03-10T02:15:45.222Z,1012.17
2017-03-10T02:16:25.773Z,1012.13
2017-03-10T02:17:06.481Z,1012.14
2017-03-10T02:17:46.921Z,1012.16
2017-03-10T02:18:27.442Z,1012.14
2017-03-10T02:19:07.975Z,1012.18
2017-03-10T02:19:48.471Z,1012.15
2017-03-10T02:20:28.918Z,1012.12
2017-03-10T02:21:09.439Z,1012.15
2017-03-10T02:21:50.620Z,1012.18
2017-03-10T02:22:31.323Z,1012.17
2017-03-10T02:23:13.639Z,1012.2
2017-03-10T02:23:55.804Z,1012.2
2017-03-10T02:24:37.254Z,1012.22
2017-03-10T02:25:17.725Z,1012.26
2017-03-10T02:25:58.232Z,1012.28
2017-03-10T02:26:40.296Z,1012.33
2017-03-10T02:27:22.070Z,1012.34
2017-03-10T02:28:02.474Z,1012.36
2017-03-10T02:28:42.997Z,1012.34
2017-03-10T02:29:23.495Z,1012.32
2017-03-10T02:30:04.015Z,1012.4
2017-03-10T02:30:44.544Z,1012.37
2017-03-10T02:31:25.094Z,1012.4
2017-03-10T02:32:05.557Z,1012.36
2017-03-10T02:32:46.125Z,1012.36
2017-03-10T02:33:26.734Z,1012.35
2017-03-10T02:34:07.214Z,1012.3
2017-03-10T02:34:47.734Z,1012.29
2017-03-10T02:35:28.255Z,1012.3
2017-03-10T02:36:08.776Z,1012.34
2017-03-10T02:36:49.271Z,1012.32
2017-03-10T02:37:29.904Z,1012.33
2017-03-10T02:38:10.370Z,1012.31
2017-03-10T02:38:50.886Z,1012.35
2017-03-10T02:39:34.141Z,1012.3
2017-03-10T02:40:14.694Z,1012.31
2017-03-10T02:40:55.320Z,1012.31
2017-03-10T02:41:35.764Z,1012.36
2017-03-10T02:42:16.263Z,1012.3
2017-03-10T02:42:56.806Z,1012.37
2017-03-10T02:43:37.267Z,1012.41
2017-03-10T02:44:17.789Z,1012.4
2017-03-10T02:44:58.908Z,1012.43
2017-03-10T02:45:39.414Z,1012.48
2017-03-10T02:46:20.222Z,1012.46
2017-03-10T02:47:00.756Z,1012.51
2017-03-10T02:47:41.408Z,1012.48
2017-03-10T02:48:21.942Z,1012.56
2017-03-10T02:49:02.483Z,1012.54
2017-03-10T02:49:45.083Z,1012.56
2017-03-10T02:50:25.593Z,1012.62
2017-03-10T02:51:06.128Z,1012.57
2017-03-10T02:51:46.639Z,1012.61
2017-03-10T02:52:27.145Z,1012.64
2017-03-10T02:53:09.459Z,1012.61
2017-03-10T02:53:49.953Z,1012.64
2017-03-10T02:54:31.300Z,1012.64
2017-03-10T02:55:11.809Z,1012.66
2017-03-10T02:55:52.447Z,1012.67
2017-03-10T02:56:33.547Z,1012.6
2017-03-10T02:57:14.107Z,1012.62
2017-03-10T02:57:54.598Z,1012.59
2017-03-10T02:58:35.156Z,1012.63
2017-03-10T02:59:15.611Z,1012.61
2017-03-10T02:59:56.214Z,1012.63
2017-03-10T03:00:36.718Z,1012.67
2017-03-10T03:01:17.254Z,1012.67
2017-03-10T03:01:59.558Z,1012.68
2017-03-10T03:02:40.091Z,1012.72
2017-03-10T03:03:20.576Z,1012.8
2017-03-10T03:04:01.124Z,1012.84
2017-03-10T03:04:43.151Z,1012.94
2017-03-10T03:05:23.776Z,1012.94
2017-03-10T03:06:05.803Z,1012.95
2017-03-10T03:06:46.320Z,1012.96
2017-03-10T03:07:28.630Z,1012.92
2017-03-10T03:08:09.131Z,1012.95
2017-03-10T03:08:49.747Z,1012.88
2017-03-10T03:09:30.251Z,1012.86
2017-03-10T03:10:10.770Z,1012.86
2017-03-10T03:10:52.052Z,1012.83
2017-03-10T03:11:32.598Z,1012.81
2017-03-10T03:12:13.162Z,1012.88
2017-03-10T03:12:53.717Z,1012.87
2017-03-10T03:13:34.494Z,1012.88
2017-03-10T03:14:16.572Z,1012.89
2017-03-10T03:14:57.053Z,1012.93
2017-03-10T03:15:37.496Z,1012.88
2017-03-10T03:16:21.324Z,1012.88
2017-03-10T03:17:01.832Z,1012.84
2017-03-10T03:17:42.358Z,1012.85
2017-03-10T03:18:22.861Z,1012.81
2017-03-10T03:19:03.355Z,1012.83
2017-03-10T03:19:43.854Z,1012.84
2017-03-10T03:20:24.377Z,1012.85
2017-03-10T03:21:04.922Z,1012.89
2017-03-10T03:21:45.517Z,1012.9
2017-03-10T03:22:26.754Z,1012.87
2017-03-10T03:23:09.404Z,1012.87
2017-03-10T03:23:49.904Z,1012.9
2017-03-10T03:24:32.316Z,1012.89
2017-03-10T03:25:12.859Z,1012.91
2017-03-10T03:25:53.397Z,1012.91
2017-03-10T03:26:34.344Z,1012.95
2017-03-10T03:27:16.480Z,1012.96
2017-03-10T03:27:57.101Z,1012.94
2017-03-10T03:28:37.621Z,1012.96
2017-03-10T03:29:19.752Z,1012.95
2017-03-10T03:30:00.231Z,1012.96
2017-03-10T03:30:40.742Z,1012.97
2017-03-10T03:31:21.213Z,1012.94
2017-03-10T03:32:01.705Z,1012.9
2017-03-10T03:32:42.220Z,1012.93
2017-03-10T03:33:22.709Z,1012.96
2017-03-10T03:34:03.208Z,1012.98
2017-03-10T03:34:43.715Z,1012.99
2017-03-10T03:35:25.745Z,1013.01
2017-03-10T03:36:06.254Z,1013.02
2017-03-10T03:36:46.731Z,1013.04
2017-03-10T03:37:27.241Z,1013.06
2017-03-10T03:38:07.745Z,1013.13
2017-03-10T03:38:48.249Z,1013.12
2017-03-10T03:39:28.745Z,1013.08
2017-03-10T03:40:09.230Z,1013.12
2017-03-10T03:40:49.764Z,1013.07
2017-03-10T03:41:30.289Z,1013.09
2017-03-10T03:42:12.620Z,1013.05
2017-03-10T03:42:53.132Z,1013.04
2017-03-10T03:43:33.624Z,1013.05
2017-03-10T03:44:14.125Z,1013.04
2017-03-10T03:44:54.617Z,1013.06
2017-03-10T03:45:35.124Z,1013.05
2017-03-10T03:46:15.632Z,1013.01
2017-03-10T03:46:56.166Z,1013.08
2017-03-10T03:47:36.668Z,1013.07
2017-03-10T03:48:17.145Z,1013.08
2017-03-10T03:48:57.671Z,1013.05
2017-03-10T03:49:39.763Z,1013.07
2017-03-10T03:50:22.817Z,1013.09
2017-03-10T03:51:03.331Z,1013.12
2017-03-10T03:51:47.441Z,1013.06
2017-03-10T03:52:27.924Z,1013.11
2017-03-10T03:53:08.434Z,1013.16
2017-03-10T03:53:48.950Z,1013.15
2017-03-10T03:54:29.440Z,1013.13
2017-03-10T03:55:09.959Z,1013.16
2017-03-10T03:55:50.462Z,1013.19
2017-03-10T03:56:30.986Z,1013.24
2017-03-10T03:57:11.495Z,1013.19
2017-03-10T03:57:54.530Z,1013.22
2017-03-10T03:58:35.131Z,1013.22
2017-03-10T03:59:15.586Z,1013.16
2017-03-10T03:59:56.160Z,1013.18
2017-03-10T04:00:38.461Z,1013.14
2017-03-10T04:01:18.976Z,1013.15
2017-03-10T04:02:02.820Z,1013.17
2017-03-10T04:02:43.345Z,1013.16
2017-03-10T04:03:23.846Z,1013.16
2017-03-10T04:04:04.378Z,1013.17
2017-03-10T04:04:46.573Z,1013.22
2017-03-10T04:05:27.103Z,1013.25
2017-03-10T04:06:07.585Z,1013.23
2017-03-10T04:06:48.082Z,1013.19
2017-03-10T04:07:30.453Z,1013.22
2017-03-10T04:08:11.125Z,1013.21
2017-03-10T04:08:51.475Z,1013.23
2017-03-10T04:09:31.984Z,1013.29
2017-03-10T04:10:12.507Z,1013.26
2017-03-10T04:10:53.055Z,1013.29
2017-03-10T04:11:33.580Z,1013.27
2017-03-10T04:12:14.125Z,1013.33
2017-03-10T04:12:54.659Z,1013.31
2017-03-10T04:13:35.245Z,1013.32
2017-03-10T04:14:17.474Z,1013.35
2017-03-10T04:14:57.996Z,1013.33
2017-03-10T04:15:38.604Z,1013.34
2017-03-10T04:16:19.147Z,1013.34
2017-03-10T04:17:01.299Z,1013.42
2017-03-10T04:17:41.776Z,1013.46
2017-03-10T04:18:22.301Z,1013.47
2017-03-10T04:19:02.819Z,1013.48
2017-03-10T04:19:43.343Z,1013.5
2017-03-10T04:20:23.815Z,1013.51
2017-03-10T04:21:04.364Z,1013.47
2017-03-10T04:21:44.880Z,1013.49
2017-03-10T04:22:25.520Z,1013.49
2017-03-10T04:23:06.040Z,1013.51
2017-03-10T04:23:46.526Z,1013.48
2017-03-10T04:24:27.177Z,1013.47
2017-03-10T04:25:07.773Z,1013.49
2017-03-10T04:25:51.289Z,1013.52
2017-03-10T04:26:31.784Z,1013.52
2017-03-10T04:27:12.326Z,1013.49
2017-03-10T04:27:52.835Z,1013.5
2017-03-10T04:28:33.347Z,1013.57
2017-03-10T04:29:13.885Z,1013.55
2017-03-10T04:29:54.420Z,1013.55
2017-03-10T04:30:36.478Z,1013.56
2017-03-10T04:31:17.024Z,1013.59
2017-03-10T04:31:57.745Z,1013.6
2017-03-10T04:32:38.224Z,1013.61
2017-03-10T04:33:20.340Z,1013.61
2017-03-10T04:34:00.925Z,1013.6
2017-03-10T04:34:41.356Z,1013.57
2017-03-10T04:35:21.859Z,1013.63
2017-03-10T04:36:02.420Z,1013.53
2017-03-10T04:36:43.846Z,1013.58
2017-03-10T04:37:24.409Z,1013.64
2017-03-10T04:38:04.910Z,1013.56
2017-03-10T04:38:45.489Z,1013.57
2017-03-10T04:39:25.973Z,1013.57
2017-03-10T04:40:06.480Z,1013.54
2017-03-10T04:40:48.649Z,1013.56
2017-03-10T04:41:29.143Z,1013.58
2017-03-10T04:42:09.752Z,1013.56
2017-03-10T04:42:50.262Z,1013.55
2017-03-10T04:43:30.778Z,1013.55
2017-03-10T04:44:11.256Z,1013.59
2017-03-10T04:44:51.799Z,1013.58
2017-03-10T04:45:32.661Z,1013.61
2017-03-10T04:46:14.656Z,1013.58
2017-03-10T04:46:55.151Z,1013.61
2017-03-10T04:47:35.686Z,1013.63
2017-03-10T04:48:16.415Z,1013.67
2017-03-10T04:48:56.894Z,1013.67
2017-03-10T04:49:37.410Z,1013.66
2017-03-10T04:50:17.930Z,1013.69
2017-03-10T04:50:58.447Z,1013.68
2017-03-10T04:51:39.010Z,1013.7
2017-03-10T04:52:19.487Z,1013.73
2017-03-10T04:53:00.005Z,1013.77
2017-03-10T04:53:40.504Z,1013.76
2017-03-10T04:54:21.135Z,1013.78
2017-03-10T04:55:01.675Z,1013.79
2017-03-10T04:55:42.155Z,1013.83
2017-03-10T04:56:22.772Z,1013.8
2017-03-10T04:57:03.314Z,1013.85
2017-03-10T04:57:43.809Z,1013.83
2017-03-10T04:58:24.415Z,1013.86
2017-03-10T04:59:11.075Z,1013.88
2017-03-10T04:59:51.706Z,1013.9
2017-03-10T05:00:32.288Z,1013.89
2017-03-10T05:01:12.785Z,1013.93
2017-03-10T05:01:53.319Z,1013.89
2017-03-10T05:02:33.837Z,1013.91
2017-03-10T05:03:14.535Z,1013.93
2017-03-10T05:03:55.044Z,1013.98
2017-03-10T05:04:39.351Z,1013.96
2017-03-10T05:05:19.881Z,1013.95
2017-03-10T05:06:00.430Z,1013.92
2017-03-10T05:06:40.852Z,1013.89
2017-03-10T05:07:21.380Z,1014
2017-03-10T05:08:01.903Z,1013.96
2017-03-10T05:08:42.506Z,1014.01
2017-03-10T05:09:23.156Z,1013.99
2017-03-10T05:10:03.818Z,1013.93
2017-03-10T05:10:44.298Z,1014.04
2017-03-10T05:11:24.885Z,1014
2017-03-10T05:12:05.378Z,1013.98
2017-03-10T05:12:45.930Z,1013.99
2017-03-10T05:13:28.177Z,1014.01
2017-03-10T05:14:08.679Z,1013.98
2017-03-10T05:14:49.207Z,1013.98
2017-03-10T05:15:29.787Z,1013.97
2017-03-10T05:16:12.473Z,1013.99
2017-03-10T05:16:53.004Z,1013.98
2017-03-10T05:17:33.558Z,1013.98
2017-03-10T05:18:14.059Z,1013.95
2017-03-10T05:18:54.621Z,1014
2017-03-10T05:19:35.103Z,1013.92
2017-03-10T05:20:15.707Z,1013.99
2017-03-10T05:20:58.158Z,1013.95
2017-03-10T05:21:38.657Z,1013.99
2017-03-10T05:22:22.118Z,1013.92
2017-03-10T05:23:02.570Z,1013.99
2017-03-10T05:23:43.107Z,1014.01
2017-03-10T05:24:23.650Z,1014
2017-03-10T05:25:04.168Z,1014.02
2017-03-10T05:25:44.782Z,1013.99
2017-03-10T05:26:25.172Z,1014.03
2017-03-10T05:27:08.688Z,1014.02
2017-03-10T05:27:51.075Z,1014.01
2017-03-10T05:28:31.612Z,1014.07
2017-03-10T05:29:12.101Z,1014.09
2017-03-10T05:29:52.618Z,1014.06
2017-03-10T05:30:33.125Z,1014.04
2017-03-10T05:31:13.606Z,1014.1
2017-03-10T05:31:54.102Z,1014.09
2017-03-10T05:32:34.594Z,1014.11
2017-03-10T05:33:15.125Z,1014.09
2017-03-10T05:33:57.321Z,1014.12
2017-03-10T05:34:37.794Z,1014.11
2017-03-10T05:35:22.206Z,1014.14
2017-03-10T05:36:04.575Z,1014.17
2017-03-10T05:36:45.090Z,1014.17
2017-03-10T05:37:25.606Z,1014.19
2017-03-10T05:38:06.115Z,1014.17
2017-03-10T05:38:46.637Z,1014.18
2017-03-10T05:39:27.167Z,1014.19
2017-03-10T05:40:07.659Z,1014.22
2017-03-10T05:40:48.185Z,1014.21
2017-03-10T05:41:28.704Z,1014.27
2017-03-10T05:42:09.207Z,1014.25
2017-03-10T05:42:49.760Z,1014.22
2017-03-10T05:43:30.234Z,1014.25
2017-03-10T05:44:10.740Z,1014.22
2017-03-10T05:44:51.234Z,1014.22
2017-03-10T05:45:33.679Z,1014.26
2017-03-10T05:46:14.162Z,1014.25
2017-03-10T05:46:54.688Z,1014.27
2017-03-10T05:47:35.185Z,1014.25
2017-03-10T05:48:15.711Z,1014.27
2017-03-10T05:48:56.218Z,1014.24
2017-03-10T05:49:36.710Z,1014.26
2017-03-10T05:50:17.226Z,1014.22
2017-03-10T05:50:57.792Z,1014.27
2017-03-10T05:51:38.273Z,1014.24
2017-03-10T05:52:18.772Z,1014.23
2017-03-10T05:52:59.263Z,1014.19
2017-03-10T05:53:39.789Z,1014.15
2017-03-10T05:54:20.286Z,1014.17
2017-03-10T05:55:00.822Z,1014.17
2017-03-10T05:55:41.343Z,1014.2
2017-03-10T05:56:21.865Z,1014.21
2017-03-10T05:57:04.265Z,1014.16
2017-03-10T05:57:44.773Z,1014.17
2017-03-10T05:58:25.303Z,1014.18
2017-03-10T05:59:05.819Z,1014.17
2017-03-10T05:59:46.358Z,1014.2
2017-03-10T06:00:26.821Z,1014.21
2017-03-10T06:01:07.312Z,1014.26
2017-03-10T06:01:47.808Z,1014.25
2017-03-10T06:02:28.351Z,1014.27
2017-03-10T06:03:08.854Z,1014.23
2017-03-10T06:03:49.346Z,1014.28
2017-03-10T06:04:29.924Z,1014.23
2017-03-10T06:05:10.435Z,1014.27
2017-03-10T06:05:51.011Z,1014.23
2017-03-10T06:06:31.477Z,1014.29
2017-03-10T06:07:11.974Z,1014.27
2017-03-10T06:07:52.503Z,1014.27
2017-03-10T06:08:33.011Z,1014.31
2017-03-10T06:09:13.521Z,1014.28
2017-03-10T06:09:54.021Z,1014.28
2017-03-10T06:10:34.541Z,1014.29
2017-03-10T06:11:15.057Z,1014.33
2017-03-10T06:11:55.646Z,1014.26
2017-03-10T06:12:36.149Z,1014.3
2017-03-10T06:13:19.406Z,1014.34
2017-03-10T06:13:59.916Z,1014.35
2017-03-10T06:14:40.501Z,1014.35
2017-03-10T06:15:21.116Z,1014.36
2017-03-10T06:16:01.525Z,1014.37
2017-03-10T06:16:43.857Z,1014.36
2017-03-10T06:17:24.781Z,1014.4
2017-03-10T06:18:05.301Z,1014.33
2017-03-10T06:18:46.148Z,1014.38
2017-03-10T06:19:26.825Z,1014.41
2017-03-10T06:20:07.367Z,1014.38
2017-03-10T06:20:47.856Z,1014.46
2017-03-10T06:21:28.584Z,1014.42
2017-03-10T06:22:09.088Z,1014.47
2017-03-10T06:22:50.574Z,1014.45
2017-03-10T06:23:31.060Z,1014.47
2017-03-10T06:24:11.551Z,1014.48
2017-03-10T06:24:52.121Z,1014.49
2017-03-10T06:25:32.565Z,1014.45
2017-03-10T06:26:13.052Z,1014.45
2017-03-10T06:26:53.559Z,1014.45
2017-03-10T06:27:34.121Z,1014.45
2017-03-10T06:28:14.563Z,1014.46
2017-03-10T06:28:55.065Z,1014.48
2017-03-10T06:29:35.629Z,1014.52
2017-03-10T06:30:16.080Z,1014.53
2017-03-10T06:30:56.605Z,1014.55
2017-03-10T06:31:37.143Z,1014.55
2017-03-10T06:32:17.704Z,1014.57
2017-03-10T06:32:58.174Z,1014.58
2017-03-10T06:33:38.714Z,1014.59
2017-03-10T06:34:19.191Z,1014.59
2017-03-10T06:34:59.799Z,1014.59
2017-03-10T06:35:41.915Z,1014.64
2017-03-10T06:36:23.989Z,1014.65
2017-03-10T06:37:04.476Z,1014.67
2017-03-10T06:37:44.980Z,1014.66
2017-03-10T06:38:27.490Z,1014.73
2017-03-10T06:39:08.114Z,1014.73
2017-03-10T06:39:48.657Z,1014.73
2017-03-10T06:40:29.122Z,1014.73
2017-03-10T06:41:09.634Z,1014.75
2017-03-10T06:41:50.144Z,1014.8
2017-03-10T06:42:30.639Z,1014.81
2017-03-10T06:43:11.116Z,1014.78
2017-03-10T06:43:51.670Z,1014.75
2017-03-10T06:44:32.129Z,1014.75
2017-03-10T06:45:12.644Z,1014.8
2017-03-10T06:45:53.231Z,1014.78
2017-03-10T06:46:33.673Z,1014.82
2017-03-10T06:47:14.285Z,1014.82
2017-03-10T06:47:54.764Z,1014.81
2017-03-10T06:48:35.273Z,1014.82
2017-03-10T06:49:18.823Z,1014.83
2017-03-10T06:49:59.377Z,1014.84
2017-03-10T06:50:39.856Z,1014.8
2017-03-10T06:51:22.311Z,1014.83
2017-03-10T06:52:02.843Z,1014.84
2017-03-10T06:52:43.411Z,1014.83
2017-03-10T06:53:23.926Z,1014.81
2017-03-10T06:54:04.401Z,1014.81
2017-03-10T06:54:44.928Z,1014.88
2017-03-10T06:55:25.692Z,1014.84
2017-03-10T06:56:09.857Z,1014.85
2017-03-10T06:56:50.804Z,1014.86
2017-03-10T06:57:30.916Z,1014.83
2017-03-10T06:58:11.526Z,1014.88
2017-03-10T06:58:52.041Z,1014.89
2017-03-10T06:59:33.043Z,1014.88
2017-03-10T07:00:13.691Z,1014.9
2017-03-10T07:02:30.833Z,1014.87
2017-03-10T07:03:12.017Z,1014.89
2017-03-10T07:03:52.521Z,1014.84
2017-03-10T07:04:33.011Z,1014.9
2017-03-10T07:05:13.485Z,1014.87
2017-03-10T07:05:54.038Z,1014.86
2017-03-10T07:06:34.553Z,1014.9
2017-03-10T07:07:15.218Z,1014.9
2017-03-10T07:07:57.032Z,1014.99
2017-03-10T07:08:37.956Z,1014.83
2017-03-10T07:09:19.127Z,1014.88
2017-03-10T07:10:00.136Z,1014.85
2017-03-10T07:10:40.604Z,1014.84
2017-03-10T07:12:55.248Z,1014.87
2017-03-10T07:13:36.069Z,1014.91
2017-03-10T07:14:18.356Z,1014.93
2017-03-10T07:16:43.442Z,1014.96
2017-03-10T07:17:29.214Z,1014.98
2017-03-10T07:18:11.909Z,1014.97
2017-03-10T07:18:52.998Z,1014.98
2017-03-10T07:19:33.963Z,1014.98
2017-03-10T07:20:14.617Z,1014.99
2017-03-10T07:20:57.547Z,1015.03
2017-03-10T07:21:39.412Z,1015.07
2017-03-10T07:22:20.779Z,1015.02
2017-03-10T07:23:02.952Z,1015
2017-03-10T07:23:43.919Z,1015
2017-03-10T07:24:25.567Z,1014.99
2017-03-10T07:25:09.109Z,1015.04
2017-03-10T07:25:51.548Z,1015.06
2017-03-10T07:26:32.902Z,1015.07
2017-03-10T07:28:40.927Z,1015.1
2017-03-10T07:29:28.477Z,1015.11
2017-03-10T07:30:12.146Z,1015.11
2017-03-10T07:30:52.643Z,1015.07
2017-03-10T07:31:33.297Z,1015.13
2017-03-10T07:32:13.797Z,1015.13
2017-03-10T07:32:55.282Z,1015.18
2017-03-10T07:33:35.768Z,1015.16
2017-03-10T07:34:16.256Z,1015.18
2017-03-10T07:34:56.766Z,1015.24
2017-03-10T07:35:37.307Z,1015.22
2017-03-10T07:36:17.874Z,1015.21
2017-03-10T07:36:58.369Z,1015.16
2017-03-10T07:37:39.034Z,1015.26
2017-03-10T07:38:19.439Z,1015.28
2017-03-10T07:38:59.923Z,1015.22
2017-03-10T07:39:40.420Z,1015.27
2017-03-10T07:40:20.929Z,1015.23
2017-03-10T07:41:01.406Z,1015.27
2017-03-10T07:41:41.907Z,1015.25
2017-03-10T07:42:22.387Z,1015.3
2017-03-10T07:43:02.877Z,1015.24
2017-03-10T07:43:43.337Z,1015.29
2017-03-10T07:44:23.841Z,1015.3
2017-03-10T07:45:04.285Z,1015.36
2017-03-10T07:45:44.797Z,1015.36
2017-03-10T07:46:25.321Z,1015.35
2017-03-10T07:47:05.791Z,1015.35
2017-03-10T07:47:46.273Z,1015.38
2017-03-10T07:48:26.800Z,1015.42
2017-03-10T07:49:07.263Z,1015.37
2017-03-10T07:49:47.795Z,1015.43
2017-03-10T07:50:28.258Z,1015.43
2017-03-10T07:51:08.750Z,1015.41
2017-03-10T07:51:49.299Z,1015.47
2017-03-10T07:52:29.766Z,1015.51
2017-03-10T07:53:10.257Z,1015.44
2017-03-10T07:53:50.851Z,1015.46
2017-03-10T07:54:31.384Z,1015.47
2017-03-10T07:55:12.001Z,1015.44
2017-03-10T07:55:52.539Z,1015.45
2017-03-10T07:56:32.954Z,1015.44
2017-03-10T07:57:13.562Z,1015.49
2017-03-10T07:57:54.117Z,1015.39
2017-03-10T07:58:34.608Z,1015.41
2017-03-10T07:59:15.055Z,1015.39
2017-03-10T07:59:55.628Z,1015.42
2017-03-10T08:00:36.069Z,1015.4
2017-03-10T08:01:16.564Z,1015.39
2017-03-10T08:01:57.086Z,1015.4
2017-03-10T08:02:37.570Z,1015.42
2017-03-10T08:03:18.061Z,1015.42
2017-03-10T08:03:58.692Z,1015.45
2017-03-10T08:04:39.171Z,1015.43
2017-03-10T08:05:19.701Z,1015.45
2017-03-10T08:06:00.159Z,1015.45
2017-03-10T08:06:40.646Z,1015.48
2017-03-10T08:07:21.166Z,1015.48
2017-03-10T08:08:01.647Z,1015.47
2017-03-10T08:08:43.704Z,1015.51
2017-03-10T08:09:24.205Z,1015.5
2017-03-10T08:10:04.699Z,1015.56
2017-03-10T08:10:46.161Z,1015.52
2017-03-10T08:11:26.983Z,1015.5
2017-03-10T08:12:07.442Z,1015.46
2017-03-10T08:12:47.987Z,1015.46
2017-03-10T08:13:28.505Z,1015.44
2017-03-10T08:14:09.019Z,1015.51
2017-03-10T08:14:49.477Z,1015.53
2017-03-10T08:15:29.965Z,1015.54
2017-03-10T08:16:10.440Z,1015.52
2017-03-10T08:16:50.995Z,1015.52
2017-03-10T08:17:31.537Z,1015.51
2017-03-10T08:18:12.106Z,1015.5
2017-03-10T08:18:52.622Z,1015.48
2017-03-10T08:19:33.156Z,1015.47
2017-03-10T08:20:13.635Z,1015.46
2017-03-10T08:20:54.301Z,1015.47
2017-03-10T08:21:34.873Z,1015.53
2017-03-10T08:22:15.490Z,1015.51
2017-03-10T08:22:55.987Z,1015.49
2017-03-10T08:23:36.434Z,1015.45
2017-03-10T08:24:16.898Z,1015.59
2017-03-10T08:24:57.413Z,1015.54
2017-03-10T08:25:38.182Z,1015.55
2017-03-10T08:26:18.827Z,1015.52
2017-03-10T08:26:59.843Z,1015.56
2017-03-10T08:27:40.875Z,1015.51
2017-03-10T08:28:21.454Z,1015.61